sensor_id;sensor_type;location;lat;lon;timestamp;P1;durP1;ratioP1;P2;durP2;ratioP2
35839;SDS011;35514;50.504;30.500;2022-10-23T00:01:19;35.72;;;16.02;;
35839;SDS011;35514;50.504;30.500;2022-10-23T00:03:50;41.00;;;16.85;;
35839;SDS011;35514;50.504;30.500;2022-10-23T00:06:17;41.92;;;17.60;;
35839;SDS011;35514;50.504;30.500;2022-10-23T00:08:45;36.22;;;16.80;;
35839;SDS011;35514;50.504;30.500;2022-10-23T00:11:14;39.78;;;16.20;;
35839;SDS011;35514;50.504;30.500;2022-10-23T00:13:43;41.67;;;18.80;;
35839;SDS011;35514;50.504;30.500;2022-10-23T00:16:11;44.38;;;17.15;;
35839;SDS011;35514;50.504;30.500;2022-10-23T00:18:39;42.35;;;17.25;;
35839;SDS011;35514;50.504;30.500;2022-10-23T00:21:07;41.45;;;17.90;;
35839;SDS011;35514;50.504;30.500;2022-10-23T00:23:35;44.75;;;18.65;;
35839;SDS011;35514;50.504;30.500;2022-10-23T00:26:03;37.22;;;16.70;;
35839;SDS011;35514;50.504;30.500;2022-10-23T00:28:31;41.30;;;18.00;;
35839;SDS011;35514;50.504;30.500;2022-10-23T00:31:01;38.55;;;15.93;;
35839;SDS011;35514;50.504;30.500;2022-10-23T00:33:29;36.25;;;15.48;;
35839;SDS011;35514;50.504;30.500;2022-10-23T00:35:56;41.00;;;17.75;;
35839;SDS011;35514;50.504;30.500;2022-10-23T00:38:24;56.78;;;17.55;;
35839;SDS011;35514;50.504;30.500;2022-10-23T00:40:51;44.63;;;17.58;;
35839;SDS011;35514;50.504;30.500;2022-10-23T00:43:19;41.65;;;18.02;;
35839;SDS011;35514;50.504;30.500;2022-10-23T00:45:47;47.38;;;20.30;;
35839;SDS011;35514;50.504;30.500;2022-10-23T00:48:16;40.83;;;19.15;;
35839;SDS011;35514;50.504;30.500;2022-10-23T00:50:44;44.67;;;17.30;;
35839;SDS011;35514;50.504;30.500;2022-10-23T00:53:12;47.33;;;19.27;;
35839;SDS011;35514;50.504;30.500;2022-10-23T00:55:40;42.85;;;19.08;;
35839;SDS011;35514;50.504;30.500;2022-10-23T00:58:12;42.25;;;17.58;;
35839;SDS011;35514;50.504;30.500;2022-10-23T01:00:42;36.10;;;17.77;;
35839;SDS011;35514;50.504;30.500;2022-10-23T01:03:09;45.55;;;18.60;;
35839;SDS011;35514;50.504;30.500;2022-10-23T01:05:40;46.72;;;19.27;;
35839;SDS011;35514;50.504;30.500;2022-10-23T01:08:11;37.08;;;16.52;;
35839;SDS011;35514;50.504;30.500;2022-10-23T01:10:42;45.08;;;18.55;;
35839;SDS011;35514;50.504;30.500;2022-10-23T01:13:11;48.08;;;19.95;;
35839;SDS011;35514;50.504;30.500;2022-10-23T01:15:42;39.40;;;18.48;;
35839;SDS011;35514;50.504;30.500;2022-10-23T01:18:11;38.88;;;18.55;;
35839;SDS011;35514;50.504;30.500;2022-10-23T01:20:45;46.17;;;18.35;;
35839;SDS011;35514;50.504;30.500;2022-10-23T01:26:12;36.47;;;18.83;;
35839;SDS011;35514;50.504;30.500;2022-10-23T01:28:47;44.88;;;17.75;;
35839;SDS011;35514;50.504;30.500;2022-10-23T01:31:16;48.00;;;18.42;;
35839;SDS011;35514;50.504;30.500;2022-10-23T01:33:46;43.60;;;18.38;;
35839;SDS011;35514;50.504;30.500;2022-10-23T01:36:15;41.25;;;19.02;;
35839;SDS011;35514;50.504;30.500;2022-10-23T01:38:43;39.67;;;18.33;;
35839;SDS011;35514;50.504;30.500;2022-10-23T01:41:13;47.42;;;19.92;;
35839;SDS011;35514;50.504;30.500;2022-10-23T01:43:43;53.10;;;19.20;;
35839;SDS011;35514;50.504;30.500;2022-10-23T01:46:14;46.47;;;19.30;;
35839;SDS011;35514;50.504;30.500;2022-10-23T01:48:45;42.53;;;19.33;;
35839;SDS011;35514;50.504;30.500;2022-10-23T01:51:14;48.50;;;21.60;;
35839;SDS011;35514;50.504;30.500;2022-10-23T01:53:42;48.70;;;20.30;;
35839;SDS011;35514;50.504;30.500;2022-10-23T01:56:12;46.28;;;19.38;;
35839;SDS011;35514;50.504;30.500;2022-10-23T01:58:41;50.90;;;20.00;;
35839;SDS011;35514;50.504;30.500;2022-10-23T02:01:10;44.33;;;20.00;;
35839;SDS011;35514;50.504;30.500;2022-10-23T02:03:40;48.83;;;22.00;;
35839;SDS011;35514;50.504;30.500;2022-10-23T02:06:09;44.35;;;20.98;;
35839;SDS011;35514;50.504;30.500;2022-10-23T02:08:36;45.30;;;21.25;;
35839;SDS011;35514;50.504;30.500;2022-10-23T02:11:06;47.10;;;20.95;;
35839;SDS011;35514;50.504;30.500;2022-10-23T02:13:36;43.78;;;19.67;;
35839;SDS011;35514;50.504;30.500;2022-10-23T02:16:06;55.72;;;21.02;;
35839;SDS011;35514;50.504;30.500;2022-10-23T02:18:39;43.13;;;20.40;;
35839;SDS011;35514;50.504;30.500;2022-10-23T02:21:12;43.17;;;19.42;;
35839;SDS011;35514;50.504;30.500;2022-10-23T02:23:41;44.03;;;20.80;;
35839;SDS011;35514;50.504;30.500;2022-10-23T02:26:13;50.13;;;20.88;;
35839;SDS011;35514;50.504;30.500;2022-10-23T02:28:42;46.83;;;20.13;;
35839;SDS011;35514;50.504;30.500;2022-10-23T02:31:13;47.63;;;20.85;;
35839;SDS011;35514;50.504;30.500;2022-10-23T02:33:42;52.97;;;21.52;;
35839;SDS011;35514;50.504;30.500;2022-10-23T02:36:12;51.58;;;21.67;;
35839;SDS011;35514;50.504;30.500;2022-10-23T02:38:40;47.67;;;21.35;;
35839;SDS011;35514;50.504;30.500;2022-10-23T02:41:14;45.47;;;21.58;;
35839;SDS011;35514;50.504;30.500;2022-10-23T02:46:12;57.38;;;21.77;;
35839;SDS011;35514;50.504;30.500;2022-10-23T02:48:42;48.45;;;22.20;;
35839;SDS011;35514;50.504;30.500;2022-10-23T02:51:14;57.60;;;22.65;;
35839;SDS011;35514;50.504;30.500;2022-10-23T02:53:45;57.00;;;22.33;;
35839;SDS011;35514;50.504;30.500;2022-10-23T02:56:16;48.08;;;22.77;;
35839;SDS011;35514;50.504;30.500;2022-10-23T02:58:47;49.63;;;22.70;;
35839;SDS011;35514;50.504;30.500;2022-10-23T03:01:20;47.85;;;22.10;;
35839;SDS011;35514;50.504;30.500;2022-10-23T03:03:49;47.83;;;21.70;;
35839;SDS011;35514;50.504;30.500;2022-10-23T03:06:19;47.97;;;22.17;;
35839;SDS011;35514;50.504;30.500;2022-10-23T03:08:48;55.03;;;23.23;;
35839;SDS011;35514;50.504;30.500;2022-10-23T03:11:16;53.65;;;23.98;;
35839;SDS011;35514;50.504;30.500;2022-10-23T03:13:43;60.05;;;24.45;;
35839;SDS011;35514;50.504;30.500;2022-10-23T03:16:11;52.58;;;23.85;;
35839;SDS011;35514;50.504;30.500;2022-10-23T03:18:38;56.90;;;23.88;;
35839;SDS011;35514;50.504;30.500;2022-10-23T03:21:06;50.90;;;24.85;;
35839;SDS011;35514;50.504;30.500;2022-10-23T03:23:35;50.00;;;23.90;;
35839;SDS011;35514;50.504;30.500;2022-10-23T03:26:03;52.05;;;23.88;;
35839;SDS011;35514;50.504;30.500;2022-10-23T03:28:30;55.28;;;24.00;;
35839;SDS011;35514;50.504;30.500;2022-10-23T03:30:58;55.83;;;24.88;;
35839;SDS011;35514;50.504;30.500;2022-10-23T03:33:27;58.25;;;24.70;;
35839;SDS011;35514;50.504;30.500;2022-10-23T03:35:54;59.55;;;26.15;;
35839;SDS011;35514;50.504;30.500;2022-10-23T03:38:22;59.67;;;23.63;;
35839;SDS011;35514;50.504;30.500;2022-10-23T03:40:51;52.47;;;24.85;;
35839;SDS011;35514;50.504;30.500;2022-10-23T03:43:18;60.25;;;25.23;;
35839;SDS011;35514;50.504;30.500;2022-10-23T03:45:46;63.30;;;24.92;;
35839;SDS011;35514;50.504;30.500;2022-10-23T03:48:13;64.93;;;26.05;;
35839;SDS011;35514;50.504;30.500;2022-10-23T03:50:41;66.57;;;26.15;;
35839;SDS011;35514;50.504;30.500;2022-10-23T03:53:08;63.92;;;26.73;;
35839;SDS011;35514;50.504;30.500;2022-10-23T03:55:36;62.90;;;27.30;;
35839;SDS011;35514;50.504;30.500;2022-10-23T03:58:04;56.05;;;24.55;;
35839;SDS011;35514;50.504;30.500;2022-10-23T04:00:32;57.08;;;26.25;;
35839;SDS011;35514;50.504;30.500;2022-10-23T04:02:59;57.33;;;26.33;;
35839;SDS011;35514;50.504;30.500;2022-10-23T04:05:27;59.63;;;25.17;;
35839;SDS011;35514;50.504;30.500;2022-10-23T04:07:55;53.63;;;24.90;;
35839;SDS011;35514;50.504;30.500;2022-10-23T04:10:23;53.70;;;23.83;;
35839;SDS011;35514;50.504;30.500;2022-10-23T04:12:50;57.15;;;25.23;;
35839;SDS011;35514;50.504;30.500;2022-10-23T04:15:19;53.50;;;23.30;;
35839;SDS011;35514;50.504;30.500;2022-10-23T04:17:46;50.38;;;21.50;;
35839;SDS011;35514;50.504;30.500;2022-10-23T04:20:14;46.13;;;20.65;;
35839;SDS011;35514;50.504;30.500;2022-10-23T04:22:42;45.60;;;20.48;;
35839;SDS011;35514;50.504;30.500;2022-10-23T04:25:10;44.40;;;20.52;;
35839;SDS011;35514;50.504;30.500;2022-10-23T04:27:37;46.00;;;21.38;;
35839;SDS011;35514;50.504;30.500;2022-10-23T04:30:05;45.05;;;20.42;;
35839;SDS011;35514;50.504;30.500;2022-10-23T04:32:34;41.05;;;19.65;;
35839;SDS011;35514;50.504;30.500;2022-10-23T04:35:02;45.35;;;18.52;;
35839;SDS011;35514;50.504;30.500;2022-10-23T04:37:30;39.17;;;19.52;;
35839;SDS011;35514;50.504;30.500;2022-10-23T04:39:57;39.08;;;17.60;;
35839;SDS011;35514;50.504;30.500;2022-10-23T04:42:25;41.08;;;19.08;;
35839;SDS011;35514;50.504;30.500;2022-10-23T04:44:58;39.78;;;19.20;;
35839;SDS011;35514;50.504;30.500;2022-10-23T04:47:25;33.90;;;17.60;;
35839;SDS011;35514;50.504;30.500;2022-10-23T04:49:54;37.55;;;18.85;;
35839;SDS011;35514;50.504;30.500;2022-10-23T04:52:21;36.50;;;16.38;;
35839;SDS011;35514;50.504;30.500;2022-10-23T04:54:49;31.73;;;16.63;;
35839;SDS011;35514;50.504;30.500;2022-10-23T04:57:16;35.63;;;15.93;;
35839;SDS011;35514;50.504;30.500;2022-10-23T04:59:44;27.95;;;14.57;;
35839;SDS011;35514;50.504;30.500;2022-10-23T05:02:11;28.88;;;14.70;;
35839;SDS011;35514;50.504;30.500;2022-10-23T05:04:39;27.30;;;12.85;;
35839;SDS011;35514;50.504;30.500;2022-10-23T05:07:08;29.00;;;13.52;;
35839;SDS011;35514;50.504;30.500;2022-10-23T05:09:35;34.33;;;14.15;;
35839;SDS011;35514;50.504;30.500;2022-10-23T05:12:03;32.97;;;13.57;;
35839;SDS011;35514;50.504;30.500;2022-10-23T05:14:30;29.83;;;13.95;;
35839;SDS011;35514;50.504;30.500;2022-10-23T05:16:59;30.38;;;15.25;;
35839;SDS011;35514;50.504;30.500;2022-10-23T05:19:27;25.85;;;13.40;;
35839;SDS011;35514;50.504;30.500;2022-10-23T05:21:56;29.10;;;13.90;;
35839;SDS011;35514;50.504;30.500;2022-10-23T05:24:25;32.03;;;13.65;;
35839;SDS011;35514;50.504;30.500;2022-10-23T05:26:52;33.83;;;13.43;;
35839;SDS011;35514;50.504;30.500;2022-10-23T05:29:20;31.27;;;13.98;;
35839;SDS011;35514;50.504;30.500;2022-10-23T05:31:48;26.92;;;13.65;;
35839;SDS011;35514;50.504;30.500;2022-10-23T05:34:17;27.80;;;13.65;;
35839;SDS011;35514;50.504;30.500;2022-10-23T05:36:45;27.88;;;13.38;;
35839;SDS011;35514;50.504;30.500;2022-10-23T05:39:13;30.33;;;13.30;;
35839;SDS011;35514;50.504;30.500;2022-10-23T05:41:42;24.80;;;12.90;;
35839;SDS011;35514;50.504;30.500;2022-10-23T05:44:09;28.38;;;13.45;;
35839;SDS011;35514;50.504;30.500;2022-10-23T05:46:39;26.95;;;13.63;;
35839;SDS011;35514;50.504;30.500;2022-10-23T05:49:06;29.30;;;13.93;;
35839;SDS011;35514;50.504;30.500;2022-10-23T05:51:34;26.98;;;12.90;;
35839;SDS011;35514;50.504;30.500;2022-10-23T05:54:02;27.77;;;13.60;;
35839;SDS011;35514;50.504;30.500;2022-10-23T05:56:33;26.85;;;13.27;;
35839;SDS011;35514;50.504;30.500;2022-10-23T05:59:02;30.02;;;14.60;;
35839;SDS011;35514;50.504;30.500;2022-10-23T06:01:29;28.10;;;14.32;;
35839;SDS011;35514;50.504;30.500;2022-10-23T06:03:57;25.17;;;13.00;;
35839;SDS011;35514;50.504;30.500;2022-10-23T06:06:25;27.77;;;13.45;;
35839;SDS011;35514;50.504;30.500;2022-10-23T06:08:53;25.92;;;13.32;;
35839;SDS011;35514;50.504;30.500;2022-10-23T06:11:20;27.23;;;13.93;;
35839;SDS011;35514;50.504;30.500;2022-10-23T06:13:48;26.52;;;14.63;;
35839;SDS011;35514;50.504;30.500;2022-10-23T06:16:18;26.35;;;13.80;;
35839;SDS011;35514;50.504;30.500;2022-10-23T06:18:46;31.23;;;13.82;;
35839;SDS011;35514;50.504;30.500;2022-10-23T06:21:14;27.17;;;13.82;;
35839;SDS011;35514;50.504;30.500;2022-10-23T06:23:42;41.97;;;14.57;;
35839;SDS011;35514;50.504;30.500;2022-10-23T06:26:11;30.17;;;14.02;;
35839;SDS011;35514;50.504;30.500;2022-10-23T06:28:39;30.98;;;14.70;;
35839;SDS011;35514;50.504;30.500;2022-10-23T06:31:07;32.17;;;15.65;;
35839;SDS011;35514;50.504;30.500;2022-10-23T06:33:36;29.77;;;15.35;;
35839;SDS011;35514;50.504;30.500;2022-10-23T06:36:04;28.42;;;13.98;;
35839;SDS011;35514;50.504;30.500;2022-10-23T06:38:33;34.95;;;16.08;;
35839;SDS011;35514;50.504;30.500;2022-10-23T06:41:04;32.15;;;16.10;;
35839;SDS011;35514;50.504;30.500;2022-10-23T06:43:32;30.08;;;16.27;;
35839;SDS011;35514;50.504;30.500;2022-10-23T06:46:01;31.38;;;15.93;;
35839;SDS011;35514;50.504;30.500;2022-10-23T06:48:29;37.30;;;17.95;;
35839;SDS011;35514;50.504;30.500;2022-10-23T06:50:58;42.80;;;17.90;;
35839;SDS011;35514;50.504;30.500;2022-10-23T06:53:26;40.22;;;20.05;;
35839;SDS011;35514;50.504;30.500;2022-10-23T06:55:57;49.60;;;25.30;;
35839;SDS011;35514;50.504;30.500;2022-10-23T06:58:24;48.25;;;22.45;;
35839;SDS011;35514;50.504;30.500;2022-10-23T07:00:52;47.67;;;23.65;;
35839;SDS011;35514;50.504;30.500;2022-10-23T07:03:19;48.85;;;22.65;;
35839;SDS011;35514;50.504;30.500;2022-10-23T07:05:47;44.42;;;20.75;;
35839;SDS011;35514;50.504;30.500;2022-10-23T07:08:16;39.63;;;19.67;;
35839;SDS011;35514;50.504;30.500;2022-10-23T07:10:44;38.35;;;19.17;;
35839;SDS011;35514;50.504;30.500;2022-10-23T07:13:13;37.33;;;18.27;;
35839;SDS011;35514;50.504;30.500;2022-10-23T07:15:40;34.22;;;17.40;;
35839;SDS011;35514;50.504;30.500;2022-10-23T07:18:08;36.67;;;15.80;;
35839;SDS011;35514;50.504;30.500;2022-10-23T07:20:40;38.30;;;17.23;;
35839;SDS011;35514;50.504;30.500;2022-10-23T07:23:08;36.42;;;15.70;;
35839;SDS011;35514;50.504;30.500;2022-10-23T07:25:37;34.40;;;15.02;;
35839;SDS011;35514;50.504;30.500;2022-10-23T07:28:05;36.40;;;15.82;;
35839;SDS011;35514;50.504;30.500;2022-10-23T07:30:32;39.45;;;15.80;;
35839;SDS011;35514;50.504;30.500;2022-10-23T07:33:00;39.92;;;16.77;;
35839;SDS011;35514;50.504;30.500;2022-10-23T07:35:28;35.40;;;15.63;;
35839;SDS011;35514;50.504;30.500;2022-10-23T07:38:03;30.63;;;15.07;;
35839;SDS011;35514;50.504;30.500;2022-10-23T07:40:36;34.95;;;16.30;;
35839;SDS011;35514;50.504;30.500;2022-10-23T07:43:04;35.78;;;16.55;;
35839;SDS011;35514;50.504;30.500;2022-10-23T07:45:31;35.60;;;15.63;;
35839;SDS011;35514;50.504;30.500;2022-10-23T07:47:59;40.38;;;16.90;;
35839;SDS011;35514;50.504;30.500;2022-10-23T07:50:27;37.90;;;16.70;;
35839;SDS011;35514;50.504;30.500;2022-10-23T07:52:55;37.05;;;17.58;;
35839;SDS011;35514;50.504;30.500;2022-10-23T07:55:23;39.38;;;16.60;;
35839;SDS011;35514;50.504;30.500;2022-10-23T07:57:55;35.05;;;16.52;;
35839;SDS011;35514;50.504;30.500;2022-10-23T08:00:25;38.65;;;17.27;;
35839;SDS011;35514;50.504;30.500;2022-10-23T08:02:54;39.53;;;17.02;;
35839;SDS011;35514;50.504;30.500;2022-10-23T08:05:22;38.42;;;16.95;;
35839;SDS011;35514;50.504;30.500;2022-10-23T08:07:49;40.50;;;17.70;;
35839;SDS011;35514;50.504;30.500;2022-10-23T08:10:17;37.05;;;16.20;;
35839;SDS011;35514;50.504;30.500;2022-10-23T08:12:45;35.55;;;16.63;;
35839;SDS011;35514;50.504;30.500;2022-10-23T08:15:16;46.40;;;17.15;;
35839;SDS011;35514;50.504;30.500;2022-10-23T08:17:44;38.33;;;16.75;;
35839;SDS011;35514;50.504;30.500;2022-10-23T08:20:12;41.58;;;17.63;;
35839;SDS011;35514;50.504;30.500;2022-10-23T08:22:39;35.75;;;15.75;;
35839;SDS011;35514;50.504;30.500;2022-10-23T08:25:07;36.47;;;16.58;;
35839;SDS011;35514;50.504;30.500;2022-10-23T08:27:35;39.80;;;15.48;;
35839;SDS011;35514;50.504;30.500;2022-10-23T08:30:04;36.97;;;15.20;;
35839;SDS011;35514;50.504;30.500;2022-10-23T08:32:34;34.95;;;15.27;;
35839;SDS011;35514;50.504;30.500;2022-10-23T08:35:01;36.40;;;15.43;;
35839;SDS011;35514;50.504;30.500;2022-10-23T08:37:29;37.03;;;14.88;;
35839;SDS011;35514;50.504;30.500;2022-10-23T08:39:57;37.60;;;15.68;;
35839;SDS011;35514;50.504;30.500;2022-10-23T08:42:25;36.13;;;15.02;;
35839;SDS011;35514;50.504;30.500;2022-10-23T08:44:58;35.92;;;14.55;;
35839;SDS011;35514;50.504;30.500;2022-10-23T08:47:29;38.85;;;15.05;;
35839;SDS011;35514;50.504;30.500;2022-10-23T08:50:04;36.05;;;15.85;;
35839;SDS011;35514;50.504;30.500;2022-10-23T08:52:34;32.53;;;13.25;;
35839;SDS011;35514;50.504;30.500;2022-10-23T08:55:05;37.47;;;14.90;;
35839;SDS011;35514;50.504;30.500;2022-10-23T08:57:39;37.97;;;14.52;;
35839;SDS011;35514;50.504;30.500;2022-10-23T09:00:11;31.67;;;13.88;;
35839;SDS011;35514;50.504;30.500;2022-10-23T09:02:41;38.85;;;15.18;;
35839;SDS011;35514;50.504;30.500;2022-10-23T09:05:12;31.85;;;13.40;;
35839;SDS011;35514;50.504;30.500;2022-10-23T09:07:43;33.15;;;14.23;;
35839;SDS011;35514;50.504;30.500;2022-10-23T09:13:07;35.65;;;14.15;;
35839;SDS011;35514;50.504;30.500;2022-10-23T09:15:38;36.55;;;15.25;;
35839;SDS011;35514;50.504;30.500;2022-10-23T09:18:10;35.95;;;13.70;;
35839;SDS011;35514;50.504;30.500;2022-10-23T09:20:40;35.72;;;13.57;;
35839;SDS011;35514;50.504;30.500;2022-10-23T09:23:13;47.40;;;19.58;;
35839;SDS011;35514;50.504;30.500;2022-10-23T09:25:41;37.55;;;16.15;;
35839;SDS011;35514;50.504;30.500;2022-10-23T09:28:15;34.42;;;14.48;;
35839;SDS011;35514;50.504;30.500;2022-10-23T09:30:44;34.25;;;13.20;;
35839;SDS011;35514;50.504;30.500;2022-10-23T09:33:12;36.10;;;13.73;;
35839;SDS011;35514;50.504;30.500;2022-10-23T09:35:51;35.60;;;13.75;;
35839;SDS011;35514;50.504;30.500;2022-10-23T09:38:27;39.50;;;14.20;;
35839;SDS011;35514;50.504;30.500;2022-10-23T09:40:56;36.10;;;14.68;;
35839;SDS011;35514;50.504;30.500;2022-10-23T09:43:27;37.17;;;13.98;;
35839;SDS011;35514;50.504;30.500;2022-10-23T09:45:56;29.58;;;13.32;;
35839;SDS011;35514;50.504;30.500;2022-10-23T09:48:24;40.28;;;13.95;;
35839;SDS011;35514;50.504;30.500;2022-10-23T09:50:53;34.72;;;14.10;;
35839;SDS011;35514;50.504;30.500;2022-10-23T09:53:24;28.92;;;12.90;;
35839;SDS011;35514;50.504;30.500;2022-10-23T09:55:56;35.45;;;13.48;;
35839;SDS011;35514;50.504;30.500;2022-10-23T09:58:31;32.95;;;13.73;;
35839;SDS011;35514;50.504;30.500;2022-10-23T10:01:05;27.35;;;12.80;;
35839;SDS011;35514;50.504;30.500;2022-10-23T10:03:47;27.15;;;11.85;;
35839;SDS011;35514;50.504;30.500;2022-10-23T10:06:20;25.15;;;12.43;;
35839;SDS011;35514;50.504;30.500;2022-10-23T10:08:49;31.60;;;12.57;;
35839;SDS011;35514;50.504;30.500;2022-10-23T10:11:19;26.13;;;12.00;;
35839;SDS011;35514;50.504;30.500;2022-10-23T10:13:58;27.05;;;11.32;;
35839;SDS011;35514;50.504;30.500;2022-10-23T10:16:32;22.65;;;10.77;;
35839;SDS011;35514;50.504;30.500;2022-10-23T10:19:06;26.98;;;12.63;;
35839;SDS011;35514;50.504;30.500;2022-10-23T10:21:39;22.52;;;10.82;;
35839;SDS011;35514;50.504;30.500;2022-10-23T10:24:11;21.83;;;10.55;;
35839;SDS011;35514;50.504;30.500;2022-10-23T10:26:46;30.35;;;11.43;;
35839;SDS011;35514;50.504;30.500;2022-10-23T10:29:28;25.05;;;10.80;;
35839;SDS011;35514;50.504;30.500;2022-10-23T10:32:03;25.42;;;10.88;;
35839;SDS011;35514;50.504;30.500;2022-10-23T10:34:35;24.65;;;10.75;;
35839;SDS011;35514;50.504;30.500;2022-10-23T10:37:25;29.00;;;11.98;;
35839;SDS011;35514;50.504;30.500;2022-10-23T10:39:57;25.03;;;11.87;;
35839;SDS011;35514;50.504;30.500;2022-10-23T10:42:39;24.38;;;11.13;;
35839;SDS011;35514;50.504;30.500;2022-10-23T10:45:28;28.50;;;12.93;;
35839;SDS011;35514;50.504;30.500;2022-10-23T10:48:07;23.45;;;10.98;;
35839;SDS011;35514;50.504;30.500;2022-10-23T10:50:41;25.83;;;10.98;;
35839;SDS011;35514;50.504;30.500;2022-10-23T10:53:14;19.98;;;10.35;;
35839;SDS011;35514;50.504;30.500;2022-10-23T10:58:14;22.73;;;9.95;;
35839;SDS011;35514;50.504;30.500;2022-10-23T11:00:46;25.23;;;9.90;;
35839;SDS011;35514;50.504;30.500;2022-10-23T11:03:20;19.17;;;9.38;;
35839;SDS011;35514;50.504;30.500;2022-10-23T11:05:50;15.77;;;7.97;;
35839;SDS011;35514;50.504;30.500;2022-10-23T11:08:22;21.58;;;8.55;;
35839;SDS011;35514;50.504;30.500;2022-10-23T11:10:54;15.85;;;8.40;;
35839;SDS011;35514;50.504;30.500;2022-10-23T11:13:25;14.60;;;7.32;;
35839;SDS011;35514;50.504;30.500;2022-10-23T11:16:03;16.98;;;7.72;;
35839;SDS011;35514;50.504;30.500;2022-10-23T11:18:32;12.88;;;7.20;;
35839;SDS011;35514;50.504;30.500;2022-10-23T11:21:04;13.45;;;7.55;;
35839;SDS011;35514;50.504;30.500;2022-10-23T11:26:31;14.93;;;7.38;;
35839;SDS011;35514;50.504;30.500;2022-10-23T11:29:08;15.52;;;7.05;;
35839;SDS011;35514;50.504;30.500;2022-10-23T11:31:41;16.00;;;7.88;;
35839;SDS011;35514;50.504;30.500;2022-10-23T11:34:19;18.88;;;7.75;;
35839;SDS011;35514;50.504;30.500;2022-10-23T11:36:53;14.18;;;7.03;;
35839;SDS011;35514;50.504;30.500;2022-10-23T11:39:22;10.80;;;6.40;;
35839;SDS011;35514;50.504;30.500;2022-10-23T11:41:52;15.18;;;7.57;;
35839;SDS011;35514;50.504;30.500;2022-10-23T11:44:21;13.20;;;6.65;;
35839;SDS011;35514;50.504;30.500;2022-10-23T11:46:57;12.25;;;6.53;;
35839;SDS011;35514;50.504;30.500;2022-10-23T11:49:26;10.80;;;5.75;;
35839;SDS011;35514;50.504;30.500;2022-10-23T11:52:00;8.95;;;4.90;;
35839;SDS011;35514;50.504;30.500;2022-10-23T11:54:27;11.65;;;4.97;;
35839;SDS011;35514;50.504;30.500;2022-10-23T11:57:08;9.65;;;4.65;;
35839;SDS011;35514;50.504;30.500;2022-10-23T11:59:40;9.70;;;4.68;;
35839;SDS011;35514;50.504;30.500;2022-10-23T12:02:20;7.85;;;5.03;;
35839;SDS011;35514;50.504;30.500;2022-10-23T12:04:49;9.60;;;5.05;;
35839;SDS011;35514;50.504;30.500;2022-10-23T12:07:20;11.43;;;4.63;;
35839;SDS011;35514;50.504;30.500;2022-10-23T12:09:51;10.95;;;4.13;;
35839;SDS011;35514;50.504;30.500;2022-10-23T12:12:28;6.45;;;3.90;;
35839;SDS011;35514;50.504;30.500;2022-10-23T12:15:16;7.97;;;3.78;;
35839;SDS011;35514;50.504;30.500;2022-10-23T12:17:45;7.13;;;3.60;;
35839;SDS011;35514;50.504;30.500;2022-10-23T12:20:17;5.55;;;3.38;;
35839;SDS011;35514;50.504;30.500;2022-10-23T12:22:47;5.55;;;3.33;;
35839;SDS011;35514;50.504;30.500;2022-10-23T12:25:19;6.70;;;3.13;;
35839;SDS011;35514;50.504;30.500;2022-10-23T12:27:52;5.72;;;3.80;;
35839;SDS011;35514;50.504;30.500;2022-10-23T12:30:23;5.25;;;3.55;;
35839;SDS011;35514;50.504;30.500;2022-10-23T12:33:07;4.85;;;3.00;;
35839;SDS011;35514;50.504;30.500;2022-10-23T12:35:45;6.93;;;3.50;;
35839;SDS011;35514;50.504;30.500;2022-10-23T12:38:14;5.72;;;3.53;;
35839;SDS011;35514;50.504;30.500;2022-10-23T12:40:44;6.47;;;3.70;;
35839;SDS011;35514;50.504;30.500;2022-10-23T12:43:22;9.02;;;2.97;;
35839;SDS011;35514;50.504;30.500;2022-10-23T12:45:51;7.05;;;3.40;;
35839;SDS011;35514;50.504;30.500;2022-10-23T12:48:20;6.07;;;3.25;;
35839;SDS011;35514;50.504;30.500;2022-10-23T12:50:49;11.05;;;3.70;;
35839;SDS011;35514;50.504;30.500;2022-10-23T12:53:17;9.43;;;4.05;;
35839;SDS011;35514;50.504;30.500;2022-10-23T12:55:46;5.45;;;3.22;;
35839;SDS011;35514;50.504;30.500;2022-10-23T12:58:19;5.72;;;2.55;;
35839;SDS011;35514;50.504;30.500;2022-10-23T13:00:49;5.30;;;2.83;;
35839;SDS011;35514;50.504;30.500;2022-10-23T13:03:18;5.05;;;3.17;;
35839;SDS011;35514;50.504;30.500;2022-10-23T13:05:47;4.00;;;2.40;;
35839;SDS011;35514;50.504;30.500;2022-10-23T13:08:15;6.55;;;3.47;;
35839;SDS011;35514;50.504;30.500;2022-10-23T13:10:44;5.97;;;3.20;;
35839;SDS011;35514;50.504;30.500;2022-10-23T13:13:12;8.45;;;3.90;;
35839;SDS011;35514;50.504;30.500;2022-10-23T13:15:42;7.45;;;3.28;;
35839;SDS011;35514;50.504;30.500;2022-10-23T13:18:10;4.00;;;2.80;;
35839;SDS011;35514;50.504;30.500;2022-10-23T13:20:40;7.55;;;3.97;;
35839;SDS011;35514;50.504;30.500;2022-10-23T13:23:09;4.22;;;2.45;;
35839;SDS011;35514;50.504;30.500;2022-10-23T13:25:37;6.72;;;3.08;;
35839;SDS011;35514;50.504;30.500;2022-10-23T13:28:14;6.47;;;3.42;;
35839;SDS011;35514;50.504;30.500;2022-10-23T13:30:57;6.10;;;3.30;;
35839;SDS011;35514;50.504;30.500;2022-10-23T13:33:26;6.75;;;3.20;;
35839;SDS011;35514;50.504;30.500;2022-10-23T13:35:57;3.80;;;2.85;;
35839;SDS011;35514;50.504;30.500;2022-10-23T13:38:29;4.63;;;3.00;;
35839;SDS011;35514;50.504;30.500;2022-10-23T13:40:58;3.53;;;2.60;;
35839;SDS011;35514;50.504;30.500;2022-10-23T13:43:26;4.93;;;3.30;;
35839;SDS011;35514;50.504;30.500;2022-10-23T13:45:57;10.50;;;3.63;;
35839;SDS011;35514;50.504;30.500;2022-10-23T13:48:25;7.40;;;3.22;;
35839;SDS011;35514;50.504;30.500;2022-10-23T13:50:54;6.65;;;3.63;;
35839;SDS011;35514;50.504;30.500;2022-10-23T13:53:24;4.85;;;3.72;;
35839;SDS011;35514;50.504;30.500;2022-10-23T13:55:52;6.25;;;3.58;;
35839;SDS011;35514;50.504;30.500;2022-10-23T13:58:24;5.63;;;3.83;;
35839;SDS011;35514;50.504;30.500;2022-10-23T14:00:52;5.90;;;3.83;;
35839;SDS011;35514;50.504;30.500;2022-10-23T14:03:21;8.27;;;4.55;;
35839;SDS011;35514;50.504;30.500;2022-10-23T14:05:49;6.35;;;3.78;;
35839;SDS011;35514;50.504;30.500;2022-10-23T14:08:17;7.32;;;4.40;;
35839;SDS011;35514;50.504;30.500;2022-10-23T14:10:45;11.95;;;3.22;;
35839;SDS011;35514;50.504;30.500;2022-10-23T14:13:13;7.30;;;3.58;;
35839;SDS011;35514;50.504;30.500;2022-10-23T14:15:41;5.70;;;3.20;;
35839;SDS011;35514;50.504;30.500;2022-10-23T14:18:08;6.88;;;3.90;;
35839;SDS011;35514;50.504;30.500;2022-10-23T14:20:38;6.53;;;3.85;;
35839;SDS011;35514;50.504;30.500;2022-10-23T14:23:05;6.65;;;3.83;;
35839;SDS011;35514;50.504;30.500;2022-10-23T14:25:33;7.85;;;3.50;;
35839;SDS011;35514;50.504;30.500;2022-10-23T14:28:01;7.97;;;4.30;;
35839;SDS011;35514;50.504;30.500;2022-10-23T14:30:39;7.03;;;3.45;;
35839;SDS011;35514;50.504;30.500;2022-10-23T14:33:10;5.78;;;3.47;;
35839;SDS011;35514;50.504;30.500;2022-10-23T14:35:39;5.35;;;3.40;;
35839;SDS011;35514;50.504;30.500;2022-10-23T14:38:17;5.68;;;3.35;;
35839;SDS011;35514;50.504;30.500;2022-10-23T14:40:50;7.07;;;3.80;;
35839;SDS011;35514;50.504;30.500;2022-10-23T14:43:18;9.50;;;4.20;;